sensor_id;sensor_type;location;lat;lon;timestamp;P1;durP1;ratioP1;P2;durP2;ratioP2
817;SDS011;391;51.052;6.954;2023-07-31T00:01:21;4.67;;;4.13;;
817;SDS011;391;51.052;6.954;2023-07-31T00:03:25;8.23;;;4.03;;
817;SDS011;391;51.052;6.954;2023-07-31T00:05:28;5.63;;;4.53;;
817;SDS011;391;51.052;6.954;2023-07-31T00:07:32;5.23;;;3.90;;
817;SDS011;391;51.052;6.954;2023-07-31T00:09:36;7.53;;;4.00;;
817;SDS011;391;51.052;6.954;2023-07-31T00:11:40;7.57;;;4.10;;
817;SDS011;391;51.052;6.954;2023-07-31T00:13:43;6.53;;;4.40;;
817;SDS011;391;51.052;6.954;2023-07-31T00:15:48;6.90;;;4.70;;
817;SDS011;391;51.052;6.954;2023-07-31T00:17:51;5.10;;;3.60;;
817;SDS011;391;51.052;6.954;2023-07-31T00:19:54;5.80;;;3.80;;
817;SDS011;391;51.052;6.954;2023-07-31T00:21:58;4.73;;;3.50;;
817;SDS011;391;51.052;6.954;2023-07-31T00:24:02;8.93;;;4.10;;
817;SDS011;391;51.052;6.954;2023-07-31T00:26:05;5.47;;;3.73;;
817;SDS011;391;51.052;6.954;2023-07-31T00:28:09;5.37;;;3.83;;
817;SDS011;391;51.052;6.954;2023-07-31T00:30:13;5.93;;;3.70;;
817;SDS011;391;51.052;6.954;2023-07-31T00:32:17;5.97;;;3.47;;
817;SDS011;391;51.052;6.954;2023-07-31T00:34:21;7.73;;;5.23;;
817;SDS011;391;51.052;6.954;2023-07-31T00:36:24;8.00;;;4.40;;
817;SDS011;391;51.052;6.954;2023-07-31T00:38:28;5.00;;;3.60;;
817;SDS011;391;51.052;6.954;2023-07-31T00:40:34;6.70;;;4.07;;
817;SDS011;391;51.052;6.954;2023-07-31T00:42:39;5.03;;;4.10;;
817;SDS011;391;51.052;6.954;2023-07-31T00:44:42;5.30;;;3.00;;
817;SDS011;391;51.052;6.954;2023-07-31T00:46:46;4.10;;;3.70;;
817;SDS011;391;51.052;6.954;2023-07-31T00:48:52;6.63;;;4.87;;
817;SDS011;391;51.052;6.954;2023-07-31T00:50:55;6.23;;;4.10;;
817;SDS011;391;51.052;6.954;2023-07-31T00:52:59;9.50;;;4.37;;
817;SDS011;391;51.052;6.954;2023-07-31T00:55:03;8.40;;;4.30;;
817;SDS011;391;51.052;6.954;2023-07-31T00:57:07;4.00;;;3.50;;
817;SDS011;391;51.052;6.954;2023-07-31T00:59:10;4.77;;;3.00;;
817;SDS011;391;51.052;6.954;2023-07-31T01:01:14;7.43;;;4.00;;
817;SDS011;391;51.052;6.954;2023-07-31T01:03:19;5.13;;;4.00;;
817;SDS011;391;51.052;6.954;2023-07-31T01:05:25;4.20;;;3.80;;
817;SDS011;391;51.052;6.954;2023-07-31T01:07:39;8.53;;;4.50;;
817;SDS011;391;51.052;6.954;2023-07-31T01:09:50;4.30;;;3.30;;
817;SDS011;391;51.052;6.954;2023-07-31T01:12:02;4.30;;;3.90;;
817;SDS011;391;51.052;6.954;2023-07-31T01:14:07;4.57;;;3.60;;
817;SDS011;391;51.052;6.954;2023-07-31T01:16:11;4.80;;;3.30;;
817;SDS011;391;51.052;6.954;2023-07-31T01:18:16;4.83;;;3.33;;
817;SDS011;391;51.052;6.954;2023-07-31T01:20:21;6.83;;;3.60;;
817;SDS011;391;51.052;6.954;2023-07-31T01:22:32;5.80;;;3.80;;
817;SDS011;391;51.052;6.954;2023-07-31T01:24:59;8.87;;;3.80;;
817;SDS011;391;51.052;6.954;2023-07-31T01:27:17;4.67;;;3.60;;
817;SDS011;391;51.052;6.954;2023-07-31T01:29:29;4.70;;;3.10;;
817;SDS011;391;51.052;6.954;2023-07-31T01:31:42;4.10;;;2.83;;
817;SDS011;391;51.052;6.954;2023-07-31T01:33:49;4.53;;;3.63;;
817;SDS011;391;51.052;6.954;2023-07-31T01:35:54;6.20;;;3.37;;
817;SDS011;391;51.052;6.954;2023-07-31T01:37:59;5.77;;;3.73;;
817;SDS011;391;51.052;6.954;2023-07-31T01:40:04;9.03;;;3.60;;
817;SDS011;391;51.052;6.954;2023-07-31T01:42:10;5.23;;;3.47;;
817;SDS011;391;51.052;6.954;2023-07-31T01:44:15;8.13;;;4.07;;
817;SDS011;391;51.052;6.954;2023-07-31T01:46:18;6.90;;;3.47;;
817;SDS011;391;51.052;6.954;2023-07-31T01:48:22;6.67;;;3.37;;
817;SDS011;391;51.052;6.954;2023-07-31T01:50:31;7.63;;;3.60;;
817;SDS011;391;51.052;6.954;2023-07-31T01:52:34;7.17;;;3.43;;
817;SDS011;391;51.052;6.954;2023-07-31T01:54:38;4.80;;;3.40;;
817;SDS011;391;51.052;6.954;2023-07-31T01:56:42;5.30;;;4.40;;
817;SDS011;391;51.052;6.954;2023-07-31T01:58:46;4.93;;;3.80;;
817;SDS011;391;51.052;6.954;2023-07-31T02:00:50;5.67;;;4.10;;
817;SDS011;391;51.052;6.954;2023-07-31T02:02:53;6.23;;;3.87;;
817;SDS011;391;51.052;6.954;2023-07-31T02:04:57;9.97;;;3.43;;
817;SDS011;391;51.052;6.954;2023-07-31T02:07:00;4.63;;;4.13;;
817;SDS011;391;51.052;6.954;2023-07-31T02:09:04;7.63;;;3.90;;
817;SDS011;391;51.052;6.954;2023-07-31T02:11:07;5.97;;;4.10;;
817;SDS011;391;51.052;6.954;2023-07-31T02:13:11;7.40;;;3.20;;
817;SDS011;391;51.052;6.954;2023-07-31T02:15:14;5.83;;;3.37;;
817;SDS011;391;51.052;6.954;2023-07-31T02:17:19;5.40;;;3.60;;
817;SDS011;391;51.052;6.954;2023-07-31T02:19:23;7.87;;;3.67;;
817;SDS011;391;51.052;6.954;2023-07-31T02:21:27;3.70;;;2.80;;
817;SDS011;391;51.052;6.954;2023-07-31T02:23:30;4.80;;;3.80;;
817;SDS011;391;51.052;6.954;2023-07-31T02:25:34;6.03;;;3.30;;
817;SDS011;391;51.052;6.954;2023-07-31T02:27:38;5.63;;;3.60;;
817;SDS011;391;51.052;6.954;2023-07-31T02:29:41;8.53;;;4.30;;
817;SDS011;391;51.052;6.954;2023-07-31T02:31:47;6.50;;;4.17;;
817;SDS011;391;51.052;6.954;2023-07-31T02:33:52;6.30;;;3.57;;
817;SDS011;391;51.052;6.954;2023-07-31T02:35:56;6.37;;;3.70;;
817;SDS011;391;51.052;6.954;2023-07-31T02:37:59;4.60;;;3.70;;
817;SDS011;391;51.052;6.954;2023-07-31T02:40:03;6.50;;;3.93;;
817;SDS011;391;51.052;6.954;2023-07-31T02:42:06;6.43;;;3.80;;
817;SDS011;391;51.052;6.954;2023-07-31T02:44:09;6.30;;;4.33;;
817;SDS011;391;51.052;6.954;2023-07-31T02:46:16;4.23;;;3.83;;
817;SDS011;391;51.052;6.954;2023-07-31T02:48:20;6.17;;;3.33;;
817;SDS011;391;51.052;6.954;2023-07-31T02:50:25;7.47;;;5.10;;
817;SDS011;391;51.052;6.954;2023-07-31T02:52:30;7.07;;;3.73;;
817;SDS011;391;51.052;6.954;2023-07-31T02:54:33;7.10;;;3.70;;
817;SDS011;391;51.052;6.954;2023-07-31T02:56:37;6.43;;;3.37;;
817;SDS011;391;51.052;6.954;2023-07-31T02:58:41;4.30;;;3.40;;
817;SDS011;391;51.052;6.954;2023-07-31T03:00:45;7.33;;;3.70;;
817;SDS011;391;51.052;6.954;2023-07-31T03:02:48;4.10;;;3.23;;
817;SDS011;391;51.052;6.954;2023-07-31T03:04:52;5.97;;;3.17;;
817;SDS011;391;51.052;6.954;2023-07-31T03:06:57;5.07;;;3.73;;
817;SDS011;391;51.052;6.954;2023-07-31T03:09:01;6.97;;;4.13;;
817;SDS011;391;51.052;6.954;2023-07-31T03:11:04;4.70;;;4.03;;
817;SDS011;391;51.052;6.954;2023-07-31T03:13:07;5.20;;;3.93;;
817;SDS011;391;51.052;6.954;2023-07-31T03:15:11;14.17;;;12.67;;
817;SDS011;391;51.052;6.954;2023-07-31T03:17:14;5.40;;;4.40;;
817;SDS011;391;51.052;6.954;2023-07-31T03:19:18;5.50;;;4.20;;
817;SDS011;391;51.052;6.954;2023-07-31T03:21:21;4.73;;;4.10;;
817;SDS011;391;51.052;6.954;2023-07-31T03:23:27;5.23;;;3.57;;
817;SDS011;391;51.052;6.954;2023-07-31T03:25:31;6.90;;;5.17;;
817;SDS011;391;51.052;6.954;2023-07-31T03:27:34;13.10;;;11.80;;
817;SDS011;391;51.052;6.954;2023-07-31T03:29:37;7.10;;;4.30;;
817;SDS011;391;51.052;6.954;2023-07-31T03:31:41;5.33;;;4.00;;
817;SDS011;391;51.052;6.954;2023-07-31T03:33:44;12.23;;;4.57;;
817;SDS011;391;51.052;6.954;2023-07-31T03:35:47;4.00;;;3.60;;
817;SDS011;391;51.052;6.954;2023-07-31T03:37:51;6.60;;;4.40;;
817;SDS011;391;51.052;6.954;2023-07-31T03:39:56;5.00;;;4.53;;
817;SDS011;391;51.052;6.954;2023-07-31T03:42:00;6.80;;;4.80;;
817;SDS011;391;51.052;6.954;2023-07-31T03:44:04;5.63;;;3.63;;
817;SDS011;391;51.052;6.954;2023-07-31T03:46:07;6.70;;;3.90;;
817;SDS011;391;51.052;6.954;2023-07-31T03:48:11;5.80;;;4.60;;
817;SDS011;391;51.052;6.954;2023-07-31T03:50:15;6.63;;;4.30;;
817;SDS011;391;51.052;6.954;2023-07-31T03:52:18;4.40;;;3.47;;
817;SDS011;391;51.052;6.954;2023-07-31T03:54:22;6.80;;;4.57;;
817;SDS011;391;51.052;6.954;2023-07-31T03:56:27;10.93;;;4.20;;
817;SDS011;391;51.052;6.954;2023-07-31T03:58:29;7.50;;;3.40;;
817;SDS011;391;51.052;6.954;2023-07-31T04:00:33;5.10;;;3.77;;
817;SDS011;391;51.052;6.954;2023-07-31T04:02:37;5.27;;;4.30;;
817;SDS011;391;51.052;6.954;2023-07-31T04:04:41;7.47;;;5.07;;
817;SDS011;391;51.052;6.954;2023-07-31T04:06:44;7.60;;;6.50;;
817;SDS011;391;51.052;6.954;2023-07-31T04:08:48;7.20;;;4.17;;
817;SDS011;391;51.052;6.954;2023-07-31T04:10:52;4.30;;;3.60;;
817;SDS011;391;51.052;6.954;2023-07-31T04:12:57;4.13;;;3.43;;
817;SDS011;391;51.052;6.954;2023-07-31T04:15:01;5.53;;;4.53;;
817;SDS011;391;51.052;6.954;2023-07-31T04:17:12;5.13;;;4.63;;
817;SDS011;391;51.052;6.954;2023-07-31T04:19:20;6.13;;;3.73;;
817;SDS011;391;51.052;6.954;2023-07-31T04:21:24;4.83;;;3.60;;
817;SDS011;391;51.052;6.954;2023-07-31T04:23:31;5.47;;;4.73;;
817;SDS011;391;51.052;6.954;2023-07-31T04:25:36;6.80;;;4.23;;
817;SDS011;391;51.052;6.954;2023-07-31T04:27:39;6.10;;;4.17;;
817;SDS011;391;51.052;6.954;2023-07-31T04:29:44;5.87;;;4.57;;
817;SDS011;391;51.052;6.954;2023-07-31T04:31:49;6.70;;;4.60;;
817;SDS011;391;51.052;6.954;2023-07-31T04:33:53;4.93;;;4.00;;
817;SDS011;391;51.052;6.954;2023-07-31T04:35:56;8.87;;;5.17;;
817;SDS011;391;51.052;6.954;2023-07-31T04:38:00;5.37;;;4.17;;
817;SDS011;391;51.052;6.954;2023-07-31T04:40:04;6.40;;;5.67;;
817;SDS011;391;51.052;6.954;2023-07-31T04:42:09;7.33;;;4.00;;
817;SDS011;391;51.052;6.954;2023-07-31T04:44:12;7.20;;;4.77;;
817;SDS011;391;51.052;6.954;2023-07-31T04:46:17;10.90;;;5.80;;
817;SDS011;391;51.052;6.954;2023-07-31T04:48:21;5.23;;;4.57;;
817;SDS011;391;51.052;6.954;2023-07-31T04:50:25;5.83;;;4.40;;
817;SDS011;391;51.052;6.954;2023-07-31T04:52:30;4.53;;;4.13;;
817;SDS011;391;51.052;6.954;2023-07-31T04:54:32;6.13;;;5.10;;
817;SDS011;391;51.052;6.954;2023-07-31T04:56:37;5.90;;;5.30;;
817;SDS011;391;51.052;6.954;2023-07-31T04:58:40;5.73;;;4.73;;
817;SDS011;391;51.052;6.954;2023-07-31T05:00:44;6.07;;;4.67;;
817;SDS011;391;51.052;6.954;2023-07-31T05:02:49;7.30;;;4.47;;
817;SDS011;391;51.052;6.954;2023-07-31T05:04:53;8.60;;;5.17;;
817;SDS011;391;51.052;6.954;2023-07-31T05:06:56;9.10;;;5.03;;
817;SDS011;391;51.052;6.954;2023-07-31T05:09:00;5.60;;;4.90;;
817;SDS011;391;51.052;6.954;2023-07-31T05:11:04;8.10;;;6.80;;
817;SDS011;391;51.052;6.954;2023-07-31T05:13:07;6.70;;;5.27;;
817;SDS011;391;51.052;6.954;2023-07-31T05:15:11;6.10;;;4.60;;
817;SDS011;391;51.052;6.954;2023-07-31T05:17:15;6.63;;;4.53;;
817;SDS011;391;51.052;6.954;2023-07-31T05:19:20;5.67;;;4.27;;
817;SDS011;391;51.052;6.954;2023-07-31T05:21:24;7.23;;;5.03;;
817;SDS011;391;51.052;6.954;2023-07-31T05:23:28;6.47;;;5.87;;
817;SDS011;391;51.052;6.954;2023-07-31T05:25:33;5.00;;;4.47;;
817;SDS011;391;51.052;6.954;2023-07-31T05:27:36;8.10;;;5.50;;
817;SDS011;391;51.052;6.954;2023-07-31T05:29:40;8.07;;;5.80;;
817;SDS011;391;51.052;6.954;2023-07-31T05:31:43;5.00;;;4.50;;
817;SDS011;391;51.052;6.954;2023-07-31T05:33:47;5.17;;;4.70;;
817;SDS011;391;51.052;6.954;2023-07-31T05:35:53;5.83;;;5.33;;
817;SDS011;391;51.052;6.954;2023-07-31T05:37:56;5.87;;;5.20;;
817;SDS011;391;51.052;6.954;2023-07-31T05:40:00;8.70;;;4.37;;
817;SDS011;391;51.052;6.954;2023-07-31T05:42:02;6.63;;;4.33;;
817;SDS011;391;51.052;6.954;2023-07-31T05:44:06;6.00;;;3.97;;
817;SDS011;391;51.052;6.954;2023-07-31T05:46:10;6.23;;;4.60;;
817;SDS011;391;51.052;6.954;2023-07-31T05:48:14;6.30;;;4.70;;
817;SDS011;391;51.052;6.954;2023-07-31T05:50:18;5.60;;;4.40;;
817;SDS011;391;51.052;6.954;2023-07-31T05:52:23;5.03;;;4.00;;
817;SDS011;391;51.052;6.954;2023-07-31T05:54:26;5.83;;;4.53;;
817;SDS011;391;51.052;6.954;2023-07-31T05:56:30;4.70;;;4.27;;
817;SDS011;391;51.052;6.954;2023-07-31T05:58:35;7.10;;;3.90;;
817;SDS011;391;51.052;6.954;2023-07-31T06:00:41;5.00;;;4.47;;
817;SDS011;391;51.052;6.954;2023-07-31T06:02:44;4.80;;;4.40;;
817;SDS011;391;51.052;6.954;2023-07-31T06:04:48;4.30;;;3.90;;
817;SDS011;391;51.052;6.954;2023-07-31T06:06:51;5.63;;;4.40;;
817;SDS011;391;51.052;6.954;2023-07-31T06:08:56;4.33;;;3.70;;
817;SDS011;391;51.052;6.954;2023-07-31T06:11:00;5.73;;;4.27;;
817;SDS011;391;51.052;6.954;2023-07-31T06:13:03;5.90;;;4.07;;
817;SDS011;391;51.052;6.954;2023-07-31T06:15:07;5.07;;;4.20;;
817;SDS011;391;51.052;6.954;2023-07-31T06:17:11;5.90;;;3.87;;
817;SDS011;391;51.052;6.954;2023-07-31T06:19:15;7.37;;;5.10;;
817;SDS011;391;51.052;6.954;2023-07-31T06:21:18;6.20;;;4.27;;
817;SDS011;391;51.052;6.954;2023-07-31T06:23:22;4.70;;;4.07;;
817;SDS011;391;51.052;6.954;2023-07-31T06:25:26;6.10;;;4.47;;
817;SDS011;391;51.052;6.954;2023-07-31T06:27:29;7.50;;;4.80;;
817;SDS011;391;51.052;6.954;2023-07-31T06:29:33;4.77;;;4.33;;
817;SDS011;391;51.052;6.954;2023-07-31T06:31:36;6.53;;;5.43;;
817;SDS011;391;51.052;6.954;2023-07-31T06:33:40;5.83;;;4.20;;
817;SDS011;391;51.052;6.954;2023-07-31T06:35:44;5.57;;;5.07;;
817;SDS011;391;51.052;6.954;2023-07-31T06:37:47;6.10;;;4.53;;
817;SDS011;391;51.052;6.954;2023-07-31T06:39:51;6.00;;;4.80;;
817;SDS011;391;51.052;6.954;2023-07-31T06:41:56;5.23;;;4.37;;
817;SDS011;391;51.052;6.954;2023-07-31T06:44:00;5.37;;;4.87;;
817;SDS011;391;51.052;6.954;2023-07-31T06:46:04;4.73;;;4.03;;
817;SDS011;391;51.052;6.954;2023-07-31T06:48:10;4.73;;;4.33;;
817;SDS011;391;51.052;6.954;2023-07-31T06:50:14;9.07;;;4.27;;
817;SDS011;391;51.052;6.954;2023-07-31T06:52:18;6.00;;;4.40;;
817;SDS011;391;51.052;6.954;2023-07-31T06:54:22;4.50;;;4.00;;
817;SDS011;391;51.052;6.954;2023-07-31T06:56:25;5.07;;;4.27;;
817;SDS011;391;51.052;6.954;2023-07-31T06:58:30;5.17;;;4.40;;
817;SDS011;391;51.052;6.954;2023-07-31T07:00:35;7.37;;;4.90;;
817;SDS011;391;51.052;6.954;2023-07-31T07:02:42;8.17;;;4.17;;
817;SDS011;391;51.052;6.954;2023-07-31T07:04:46;5.27;;;4.30;;
817;SDS011;391;51.052;6.954;2023-07-31T07:06:49;5.30;;;4.43;;
817;SDS011;391;51.052;6.954;2023-07-31T07:08:53;6.40;;;4.50;;
817;SDS011;391;51.052;6.954;2023-07-31T07:10:57;5.10;;;3.97;;
817;SDS011;391;51.052;6.954;2023-07-31T07:13:00;4.17;;;3.60;;
817;SDS011;391;51.052;6.954;2023-07-31T07:15:06;4.57;;;3.40;;
817;SDS011;391;51.052;6.954;2023-07-31T07:17:09;6.67;;;4.17;;
817;SDS011;391;51.052;6.954;2023-07-31T07:19:13;4.33;;;3.93;;
817;SDS011;391;51.052;6.954;2023-07-31T07:21:17;5.20;;;4.33;;
817;SDS011;391;51.052;6.954;2023-07-31T07:23:20;4.30;;;3.90;;
817;SDS011;391;51.052;6.954;2023-07-31T07:25:23;5.00;;;4.60;;
817;SDS011;391;51.052;6.954;2023-07-31T07:27:27;8.03;;;5.77;;
817;SDS011;391;51.052;6.954;2023-07-31T07:29:33;6.27;;;4.93;;
817;SDS011;391;51.052;6.954;2023-07-31T07:31:38;4.63;;;4.20;;
817;SDS011;391;51.052;6.954;2023-07-31T07:33:42;4.30;;;3.87;;
817;SDS011;391;51.052;6.954;2023-07-31T07:35:46;7.27;;;5.50;;
817;SDS011;391;51.052;6.954;2023-07-31T07:37:49;5.33;;;4.83;;
817;SDS011;391;51.052;6.954;2023-07-31T07:39:54;5.33;;;4.57;;
817;SDS011;391;51.052;6.954;2023-07-31T07:41:58;7.73;;;6.10;;
817;SDS011;391;51.052;6.954;2023-07-31T07:44:00;11.00;;;6.93;;
817;SDS011;391;51.052;6.954;2023-07-31T07:46:07;12.07;;;6.50;;
817;SDS011;391;51.052;6.954;2023-07-31T07:48:12;6.80;;;5.37;;
817;SDS011;391;51.052;6.954;2023-07-31T07:50:16;4.43;;;4.03;;
817;SDS011;391;51.052;6.954;2023-07-31T07:52:20;5.80;;;5.10;;
817;SDS011;391;51.052;6.954;2023-07-31T07:54:24;5.30;;;4.70;;
817;SDS011;391;51.052;6.954;2023-07-31T07:56:27;8.73;;;5.40;;
817;SDS011;391;51.052;6.954;2023-07-31T07:58:31;8.10;;;5.40;;
817;SDS011;391;51.052;6.954;2023-07-31T08:00:34;7.10;;;5.50;;
817;SDS011;391;51.052;6.954;2023-07-31T08:02:38;7.00;;;5.97;;
817;SDS011;391;51.052;6.954;2023-07-31T08:04:43;7.07;;;4.63;;
817;SDS011;391;51.052;6.954;2023-07-31T08:06:46;5.20;;;4.50;;
817;SDS011;391;51.052;6.954;2023-07-31T08:08:50;8.00;;;4.50;;
817;SDS011;391;51.052;6.954;2023-07-31T08:10:53;6.77;;;4.90;;
817;SDS011;391;51.052;6.954;2023-07-31T08:12:57;5.50;;;4.90;;
817;SDS011;391;51.052;6.954;2023-07-31T08:15:01;5.73;;;3.80;;
817;SDS011;391;51.052;6.954;2023-07-31T08:17:04;6.17;;;3.93;;
817;SDS011;391;51.052;6.954;2023-07-31T08:19:08;4.10;;;3.70;;
817;SDS011;391;51.052;6.954;2023-07-31T08:21:16;6.67;;;4.50;;
817;SDS011;391;51.052;6.954;2023-07-31T08:23:20;3.40;;;3.20;;
817;SDS011;391;51.052;6.954;2023-07-31T08:25:24;5.13;;;3.70;;
817;SDS011;391;51.052;6.954;2023-07-31T08:27:28;5.43;;;4.10;;
817;SDS011;391;51.052;6.954;2023-07-31T08:29:31;4.93;;;3.47;;
817;SDS011;391;51.052;6.954;2023-07-31T08:31:35;4.43;;;4.03;;
817;SDS011;391;51.052;6.954;2023-07-31T08:33:38;3.70;;;3.40;;
817;SDS011;391;51.052;6.954;2023-07-31T08:35:43;4.93;;;2.80;;
817;SDS011;391;51.052;6.954;2023-07-31T08:37:48;6.93;;;4.00;;
817;SDS011;391;51.052;6.954;2023-07-31T08:39:51;4.83;;;3.47;;
817;SDS011;391;51.052;6.954;2023-07-31T08:41:57;4.67;;;4.10;;
817;SDS011;391;51.052;6.954;2023-07-31T08:44:01;3.70;;;3.30;;
817;SDS011;391;51.052;6.954;2023-07-31T08:46:05;4.13;;;3.77;;
817;SDS011;391;51.052;6.954;2023-07-31T08:48:10;6.43;;;4.63;;
817;SDS011;391;51.052;6.954;2023-07-31T08:50:16;3.97;;;3.57;;
817;SDS011;391;51.052;6.954;2023-07-31T08:52:21;7.13;;;3.90;;
817;SDS011;391;51.052;6.954;2023-07-31T08:54:25;4.40;;;3.70;;
817;SDS011;391;51.052;6.954;2023-07-31T08:56:35;4.47;;;3.70;;
817;SDS011;391;51.052;6.954;2023-07-31T08:58:42;5.23;;;4.07;;
817;SDS011;391;51.052;6.954;2023-07-31T09:00:47;4.27;;;3.87;;
817;SDS011;391;51.052;6.954;2023-07-31T09:02:57;5.03;;;3.77;;
817;SDS011;391;51.052;6.954;2023-07-31T09:05:04;3.57;;;3.27;;
817;SDS011;391;51.052;6.954;2023-07-31T09:07:09;4.00;;;3.43;;
817;SDS011;391;51.052;6.954;2023-07-31T09:09:15;4.70;;;3.57;;
817;SDS011;391;51.052;6.954;2023-07-31T09:11:20;6.20;;;3.83;;
817;SDS011;391;51.052;6.954;2023-07-31T09:13:24;3.80;;;3.50;;
817;SDS011;391;51.052;6.954;2023-07-31T09:15:28;3.23;;;2.93;;
817;SDS011;391;51.052;6.954;2023-07-31T09:17:39;3.57;;;3.20;;
817;SDS011;391;51.052;6.954;2023-07-31T09:19:42;5.03;;;3.57;;
817;SDS011;391;51.052;6.954;2023-07-31T09:21:47;5.40;;;3.57;;
817;SDS011;391;51.052;6.954;2023-07-31T09:23:51;4.30;;;2.40;;
817;SDS011;391;51.052;6.954;2023-07-31T09:25:56;2.97;;;2.77;;
817;SDS011;391;51.052;6.954;2023-07-31T09:28:02;3.87;;;3.57;;
817;SDS011;391;51.052;6.954;2023-07-31T09:30:08;6.60;;;2.90;;
817;SDS011;391;51.052;6.954;2023-07-31T09:32:15;4.03;;;3.40;;
817;SDS011;391;51.052;6.954;2023-07-31T09:34:19;4.07;;;3.07;;
817;SDS011;391;51.052;6.954;2023-07-31T09:36:23;2.80;;;2.60;;
817;SDS011;391;51.052;6.954;2023-07-31T09:38:29;3.43;;;2.60;;
817;SDS011;391;51.052;6.954;2023-07-31T09:40:34;2.90;;;2.50;;
817;SDS011;391;51.052;6.954;2023-07-31T09:42:38;3.20;;;2.90;;
817;SDS011;391;51.052;6.954;2023-07-31T09:44:43;4.43;;;2.77;;
817;SDS011;391;51.052;6.954;2023-07-31T09:46:47;4.07;;;2.90;;
817;SDS011;391;51.052;6.954;2023-07-31T09:48:50;3.87;;;2.90;;
817;SDS011;391;51.052;6.954;2023-07-31T09:50:54;2.90;;;2.70;;
817;SDS011;391;51.052;6.954;2023-07-31T09:52:58;3.40;;;2.77;;
817;SDS011;391;51.052;6.954;2023-07-31T09:55:01;4.43;;;3.40;;
817;SDS011;391;51.052;6.954;2023-07-31T09:57:05;6.10;;;2.90;;
817;SDS011;391;51.052;6.954;2023-07-31T09:59:10;2.20;;;2.10;;
817;SDS011;391;51.052;6.954;2023-07-31T10:01:16;3.27;;;2.77;;
817;SDS011;391;51.052;6.954;2023-07-31T10:03:20;5.30;;;2.30;;
817;SDS011;391;51.052;6.954;2023-07-31T10:05:24;3.40;;;2.30;;
817;SDS011;391;51.052;6.954;2023-07-31T10:07:36;3.03;;;2.73;;
817;SDS011;391;51.052;6.954;2023-07-31T10:09:41;3.20;;;2.50;;
817;SDS011;391;51.052;6.954;2023-07-31T10:11:46;4.40;;;3.67;;
817;SDS011;391;51.052;6.954;2023-07-31T10:13:54;5.03;;;2.57;;
817;SDS011;391;51.052;6.954;2023-07-31T10:15:59;2.93;;;2.60;;
817;SDS011;391;51.052;6.954;2023-07-31T10:18:05;3.13;;;2.83;;
817;SDS011;391;51.052;6.954;2023-07-31T10:20:10;6.17;;;3.37;;
817;SDS011;391;51.052;6.954;2023-07-31T10:22:14;5.20;;;2.93;;
817;SDS011;391;51.052;6.954;2023-07-31T10:24:18;3.50;;;3.20;;
817;SDS011;391;51.052;6.954;2023-07-31T10:26:22;6.20;;;3.30;;
817;SDS011;391;51.052;6.954;2023-07-31T10:28:28;3.60;;;2.50;;
817;SDS011;391;51.052;6.954;2023-07-31T10:30:33;9.30;;;3.57;;
817;SDS011;391;51.052;6.954;2023-07-31T10:32:40;6.13;;;3.30;;
817;SDS011;391;51.052;6.954;2023-07-31T10:34:48;4.57;;;3.03;;
817;SDS011;391;51.052;6.954;2023-07-31T10:37:07;3.50;;;2.93;;
817;SDS011;391;51.052;6.954;2023-07-31T10:39:34;4.40;;;2.90;;
817;SDS011;391;51.052;6.954;2023-07-31T10:41:38;3.10;;;2.80;;
817;SDS011;391;51.052;6.954;2023-07-31T10:43:44;5.30;;;3.47;;
817;SDS011;391;51.052;6.954;2023-07-31T10:45:49;3.43;;;3.00;;
817;SDS011;391;51.052;6.954;2023-07-31T10:47:58;3.40;;;2.80;;
817;SDS011;391;51.052;6.954;2023-07-31T10:50:20;2.83;;;2.50;;
817;SDS011;391;51.052;6.954;2023-07-31T10:52:26;3.20;;;2.90;;
817;SDS011;391;51.052;6.954;2023-07-31T10:54:38;6.87;;;3.60;;
817;SDS011;391;51.052;6.954;2023-07-31T10:56:44;3.47;;;3.17;;
817;SDS011;391;51.052;6.954;2023-07-31T10:58:48;4.10;;;3.00;;
817;SDS011;391;51.052;6.954;2023-07-31T11:01:05;4.30;;;3.00;;
817;SDS011;391;51.052;6.954;2023-07-31T11:03:10;2.83;;;2.53;;
817;SDS011;391;51.052;6.954;2023-07-31T11:05:16;3.03;;;2.73;;
817;SDS011;391;51.052;6.954;2023-07-31T11:07:20;4.80;;;3.23;;
817;SDS011;391;51.052;6.954;2023-07-31T11:09:24;3.30;;;3.00;;
817;SDS011;391;51.052;6.954;2023-07-31T11:11:35;3.80;;;2.37;;
817;SDS011;391;51.052;6.954;2023-07-31T11:13:40;3.50;;;2.50;;
817;SDS011;391;51.052;6.954;2023-07-31T11:15:44;3.10;;;1.90;;
817;SDS011;391;51.052;6.954;2023-07-31T11:17:48;2.60;;;2.40;;
817;SDS011;391;51.052;6.954;2023-07-31T11:19:50;4.20;;;2.00;;
817;SDS011;391;51.052;6.954;2023-07-31T11:21:54;2.33;;;1.77;;
817;SDS011;391;51.052;6.954;2023-07-31T11:24:00;1.90;;;1.80;;
817;SDS011;391;51.052;6.954;2023-07-31T11:26:05;1.67;;;1.40;;
817;SDS011;391;51.052;6.954;2023-07-31T11:28:09;2.23;;;1.90;;
817;SDS011;391;51.052;6.954;2023-07-31T11:30:14;1.60;;;1.30;;
817;SDS011;391;51.052;6.954;2023-07-31T11:32:17;1.50;;;1.40;;
817;SDS011;391;51.052;6.954;2023-07-31T11:34:21;1.33;;;1.23;;
817;SDS011;391;51.052;6.954;2023-07-31T11:36:24;1.20;;;1.10;;
817;SDS011;391;51.052;6.954;2023-07-31T11:38:28;2.00;;;1.10;;
817;SDS011;391;51.052;6.954;2023-07-31T11:40:40;1.30;;;1.20;;
817;SDS011;391;51.052;6.954;2023-07-31T11:42:44;4.10;;;1.70;;
817;SDS011;391;51.052;6.954;2023-07-31T11:44:48;4.23;;;2.10;;
817;SDS011;391;51.052;6.954;2023-07-31T11:46:51;1.77;;;1.03;;
817;SDS011;391;51.052;6.954;2023-07-31T11:48:58;1.30;;;1.20;;
817;SDS011;391;51.052;6.954;2023-07-31T11:51:03;2.50;;;1.27;;
817;SDS011;391;51.052;6.954;2023-07-31T11:53:08;1.17;;;1.00;;
817;SDS011;391;51.052;6.954;2023-07-31T11:55:11;1.37;;;1.20;;
817;SDS011;391;51.052;6.954;2023-07-31T11:57:18;1.90;;;1.03;;
817;SDS011;391;51.052;6.954;2023-07-31T11:59:22;1.47;;;1.00;;
817;SDS011;391;51.052;6.954;2023-07-31T12:01:26;1.23;;;1.07;;
817;SDS011;391;51.052;6.954;2023-07-31T12:03:31;1.60;;;1.50;;
817;SDS011;391;51.052;6.954;2023-07-31T12:05:36;1.33;;;0.87;;
817;SDS011;391;51.052;6.954;2023-07-31T12:07:47;1.10;;;1.00;;
817;SDS011;391;51.052;6.954;2023-07-31T12:09:53;1.80;;;1.20;;
817;SDS011;391;51.052;6.954;2023-07-31T12:11:57;1.70;;;1.30;;
817;SDS011;391;51.052;6.954;2023-07-31T12:14:05;1.20;;;1.00;;
817;SDS011;391;51.052;6.954;2023-07-31T12:16:08;1.30;;;1.10;;
817;SDS011;391;51.052;6.954;2023-07-31T12:18:12;1.77;;;1.50;;
817;SDS011;391;51.052;6.954;2023-07-31T12:20:19;3.00;;;1.70;;
817;SDS011;391;51.052;6.954;2023-07-31T12:22:22;2.33;;;2.13;;
817;SDS011;391;51.052;6.954;2023-07-31T12:24:26;1.77;;;1.67;;
817;SDS011;391;51.052;6.954;2023-07-31T12:26:33;1.83;;;1.60;;
817;SDS011;391;51.052;6.954;2023-07-31T12:28:37;3.50;;;1.80;;
817;SDS011;391;51.052;6.954;2023-07-31T12:30:45;1.80;;;1.70;;
817;SDS011;391;51.052;6.954;2023-07-31T12:32:48;2.23;;;2.07;;
817;SDS011;391;51.052;6.954;2023-07-31T12:34:52;2.63;;;1.70;;
817;SDS011;391;51.052;6.954;2023-07-31T12:36:55;3.77;;;2.80;;
817;SDS011;391;51.052;6.954;2023-07-31T12:38:59;2.10;;;1.93;;
817;SDS011;391;51.052;6.954;2023-07-31T12:41:02;2.67;;;2.47;;
817;SDS011;391;51.052;6.954;2023-07-31T12:43:06;3.50;;;2.80;;
817;SDS011;391;51.052;6.954;2023-07-31T12:45:09;2.83;;;2.63;;
817;SDS011;391;51.052;6.954;2023-07-31T12:47:14;4.27;;;2.63;;
817;SDS011;391;51.052;6.954;2023-07-31T12:49:18;3.87;;;3.20;;
817;SDS011;391;51.052;6.954;2023-07-31T12:51:22;2.80;;;2.60;;
817;SDS011;391;51.052;6.954;2023-07-31T12:53:24;3.20;;;2.57;;
817;SDS011;391;51.052;6.954;2023-07-31T12:55:28;3.30;;;2.97;;
817;SDS011;391;51.052;6.954;2023-07-31T12:57:31;3.43;;;2.53;;
817;SDS011;391;51.052;6.954;2023-07-31T12:59:36;2.83;;;2.53;;
817;SDS011;391;51.052;6.954;2023-07-31T13:01:40;3.63;;;2.80;;
817;SDS011;391;51.052;6.954;2023-07-31T13:03:44;3.27;;;2.97;;
817;SDS011;391;51.052;6.954;2023-07-31T13:05:48;3.10;;;2.67;;
817;SDS011;391;51.052;6.954;2023-07-31T13:07:52;2.87;;;2.63;;
817;SDS011;391;51.052;6.954;2023-07-31T13:09:55;3.60;;;3.27;;
817;SDS011;391;51.052;6.954;2023-07-31T13:11:58;3.40;;;3.10;;
817;SDS011;391;51.052;6.954;2023-07-31T13:14:02;2.47;;;2.27;;
817;SDS011;391;51.052;6.954;2023-07-31T13:16:05;2.90;;;2.30;;
817;SDS011;391;51.052;6.954;2023-07-31T13:18:08;2.93;;;2.33;;
817;SDS011;391;51.052;6.954;2023-07-31T13:20:13;3.00;;;2.53;;